createdAt,value
2023-03-02T00:00:02.608Z,7.60
2023-03-02T00:03:09.308Z,7.60
2023-03-02T00:06:14.736Z,7.79
2023-03-02T00:09:19.208Z,7.68
2023-03-02T00:12:23.048Z,7.63
2023-03-02T00:15:26.906Z,7.54
2023-03-02T00:18:30.481Z,7.52
2023-03-02T00:21:35.715Z,7.59
2023-03-02T00:24:39.475Z,7.44
2023-03-02T00:27:43.185Z,7.37
2023-03-02T00:30:46.965Z,7.70
2023-03-02T00:33:54.595Z,7.53
2023-03-02T00:36:59.664Z,7.43
2023-03-02T00:40:05.031Z,7.73
2023-03-02T00:43:08.729Z,7.43
2023-03-02T00:46:13.534Z,7.70
2023-03-02T00:49:17.373Z,7.51
2023-03-02T00:52:22.525Z,7.38
2023-03-02T00:55:26.325Z,7.24
2023-03-02T00:58:30.282Z,7.41
2023-03-02T01:01:34.974Z,7.31
2023-03-02T01:04:40.534Z,7.60
2023-03-02T01:07:45.987Z,7.54
2023-03-02T01:10:49.533Z,7.54
2023-03-02T01:13:53.178Z,7.40
2023-03-02T01:16:57.028Z,7.34
2023-03-02T01:20:00.717Z,7.55
2023-03-02T01:23:06.421Z,7.49
2023-03-02T01:26:10.453Z,7.57
2023-03-02T01:29:14.120Z,7.24
2023-03-02T01:32:17.950Z,7.13
2023-03-02T01:35:21.793Z,6.90
2023-03-02T01:38:27.906Z,7.03
2023-03-02T01:41:32.026Z,7.70
2023-03-02T01:44:42.599Z,7.48
2023-03-02T01:47:46.261Z,7.36
2023-03-02T01:50:54.792Z,7.33
2023-03-02T01:54:05.392Z,7.68
2023-03-02T01:57:10.018Z,7.58
2023-03-02T02:00:17.668Z,7.39
2023-03-02T02:03:24.501Z,7.31
2023-03-02T02:06:34.560Z,7.52
2023-03-02T02:09:42.552Z,7.72
2023-03-02T02:12:46.843Z,7.43
2023-03-02T02:15:50.385Z,7.49
2023-03-02T02:18:54.569Z,7.47
2023-03-02T02:21:58.545Z,7.25
2023-03-02T02:25:11.494Z,7.26
2023-03-02T02:28:21.250Z,7.55
2023-03-02T02:31:30.512Z,7.51
2023-03-02T02:34:40.710Z,7.67
2023-03-02T02:37:48.767Z,7.62
2023-03-02T02:40:57.058Z,7.73
2023-03-02T02:44:07.921Z,7.59
2023-03-02T02:47:18.714Z,7.63
2023-03-02T02:50:24.719Z,7.71
2023-03-02T02:53:32.026Z,7.76
2023-03-02T02:56:39.984Z,7.79
2023-03-02T02:59:50.800Z,7.62
2023-03-02T03:03:00.388Z,7.49
2023-03-02T03:06:06.896Z,7.45
2023-03-02T03:09:11.962Z,7.47
2023-03-02T03:12:24.920Z,7.41
2023-03-02T03:15:31.228Z,7.10
2023-03-02T03:18:34.974Z,7.23
2023-03-02T03:21:38.801Z,7.06
2023-03-02T03:24:44.732Z,7.21
2023-03-02T03:27:48.528Z,7.08
2023-03-02T03:30:54.320Z,7.26
2023-03-02T03:34:00.932Z,7.57
2023-03-02T03:37:09.518Z,7.57
2023-03-02T03:40:13.664Z,7.74
2023-03-02T03:43:20.062Z,7.75
2023-03-02T03:46:30.453Z,7.42
2023-03-02T03:49:34.456Z,7.34
2023-03-02T03:52:39.211Z,7.33
2023-03-02T03:55:51.240Z,7.45
2023-03-02T03:59:06.422Z,7.70
2023-03-02T04:02:15.773Z,7.35
2023-03-02T04:05:20.348Z,7.52
2023-03-02T04:08:27.677Z,7.54
2023-03-02T04:11:31.331Z,7.24
2023-03-02T04:14:34.976Z,7.18
2023-03-02T04:17:40.205Z,7.18
2023-03-02T04:20:44.119Z,7.46
2023-03-02T04:23:49.366Z,7.44
2023-03-02T04:26:53.775Z,7.55
2023-03-02T04:29:58.511Z,7.57
2023-03-02T04:33:03.617Z,7.22
2023-03-02T04:36:09.125Z,7.52
2023-03-02T04:39:15.088Z,7.48
2023-03-02T04:42:21.313Z,7.35
2023-03-02T04:45:24.905Z,7.19
2023-03-02T04:48:30.336Z,7.30
2023-03-02T04:51:37.576Z,7.16
2023-03-02T04:54:44.409Z,6.92
2023-03-02T04:57:48.100Z,6.84
2023-03-02T05:00:51.705Z,6.85
2023-03-02T05:03:56.998Z,7.11
2023-03-02T05:07:00.944Z,7.39
2023-03-02T05:10:05.091Z,7.28
2023-03-02T05:13:08.740Z,7.39
2023-03-02T05:16:12.554Z,7.34
2023-03-02T05:19:17.866Z,7.49
2023-03-02T05:22:21.605Z,7.52
2023-03-02T05:25:26.597Z,7.47
2023-03-02T05:28:30.243Z,7.56
2023-03-02T05:31:37.242Z,6.87
2023-03-02T05:34:42.260Z,7.43
2023-03-02T05:37:46.271Z,7.36
2023-03-02T05:40:50.067Z,7.24
2023-03-02T05:43:53.834Z,7.29
2023-03-02T05:46:58.286Z,7.30
2023-03-02T05:50:03.454Z,7.31
2023-03-02T05:53:07.017Z,7.28
2023-03-02T05:56:10.706Z,7.36
2023-03-02T05:59:14.378Z,7.16
2023-03-02T06:02:18.362Z,7.13
2023-03-02T06:05:24.875Z,7.17
2023-03-02T06:08:28.636Z,7.25
2023-03-02T06:11:32.426Z,7.30
2023-03-02T06:14:36.666Z,7.25
2023-03-02T06:17:40.423Z,7.30
2023-03-02T06:20:45.697Z,7.51
2023-03-02T06:23:49.426Z,7.61
2023-03-02T06:26:54.721Z,7.72
2023-03-02T06:29:58.505Z,7.81
2023-03-02T06:33:02.230Z,7.77
2023-03-02T06:36:08.094Z,7.80
2023-03-02T06:39:16.120Z,7.71
2023-03-02T06:42:19.837Z,7.75
2023-03-02T06:45:23.636Z,7.73
2023-03-02T06:48:27.479Z,7.72
2023-03-02T06:51:33.031Z,7.67
2023-03-02T06:54:36.718Z,7.65
2023-03-02T06:57:41.088Z,7.58
2023-03-02T07:00:44.999Z,7.38
2023-03-02T07:03:49.067Z,7.60
2023-03-02T07:06:54.326Z,7.41
2023-03-02T07:09:57.979Z,7.44
2023-03-02T07:13:01.817Z,7.64
2023-03-02T07:16:09.108Z,7.63
2023-03-02T07:19:14.140Z,7.62
2023-03-02T07:22:19.406Z,7.53
2023-03-02T07:25:23.064Z,7.55
2023-03-02T07:28:27.553Z,7.86
2023-03-02T07:31:31.653Z,7.72
2023-03-02T07:34:35.763Z,7.71
2023-03-02T07:37:41.156Z,7.80
2023-03-02T07:40:45.620Z,7.55
2023-03-02T07:43:49.444Z,6.99
2023-03-02T07:46:53.439Z,7.54
2023-03-02T07:49:57.353Z,7.50
2023-03-02T07:53:02.621Z,7.79
2023-03-02T07:56:10.941Z,7.75
2023-03-02T07:59:15.224Z,7.76
2023-03-02T08:02:20.866Z,7.65
2023-03-02T08:05:24.718Z,7.80
2023-03-02T08:08:30.033Z,8.16
2023-03-02T08:11:34.433Z,8.20
2023-03-02T08:14:39.425Z,7.82
2023-03-02T08:17:43.537Z,7.92
2023-03-02T08:20:47.367Z,7.84
2023-03-02T08:23:53.395Z,7.66
2023-03-02T08:26:57.487Z,7.87
2023-03-02T08:30:01.264Z,8.09
2023-03-02T08:33:07.145Z,8.01
2023-03-02T08:36:15.968Z,8.41
2023-03-02T08:39:22.590Z,8.25
2023-03-02T08:42:26.368Z,7.97
2023-03-02T08:45:30.094Z,8.01
2023-03-02T08:48:34.004Z,8.20
2023-03-02T08:51:37.837Z,8.26
2023-03-02T08:54:43.049Z,8.23
2023-03-02T08:57:46.972Z,8.20
2023-03-02T09:00:50.835Z,8.35
2023-03-02T09:03:54.639Z,8.27
2023-03-02T09:06:58.500Z,8.17
2023-03-02T09:10:03.753Z,8.50
2023-03-02T09:13:08.687Z,8.29
2023-03-02T09:16:14.520Z,8.59
2023-03-02T09:19:18.346Z,8.34
2023-03-02T09:22:22.064Z,8.26
2023-03-02T09:25:27.664Z,8.67
2023-03-02T09:28:31.583Z,8.65
2023-03-02T09:31:36.493Z,8.19
2023-03-02T09:34:40.438Z,8.21
2023-03-02T09:37:44.703Z,8.39
2023-03-02T09:41:23.904Z,8.55
2023-03-02T09:44:55.008Z,8.55
2023-03-02T09:48:11.810Z,8.15
2023-03-02T09:51:33.155Z,8.44
2023-03-02T09:54:38.138Z,8.35
2023-03-02T09:57:44.413Z,8.59
2023-03-02T10:00:48.675Z,8.85
2023-03-02T10:03:59.430Z,8.74
2023-03-02T10:07:13.119Z,8.69
2023-03-02T10:10:29.563Z,8.41
2023-03-02T10:13:45.031Z,8.36
2023-03-02T10:16:53.329Z,8.44
2023-03-02T10:20:02.421Z,8.62
2023-03-02T10:23:20.626Z,8.76
2023-03-02T10:26:31.906Z,8.77
2023-03-02T10:29:47.346Z,8.75
2023-03-02T10:32:53.136Z,8.56
2023-03-02T10:35:56.867Z,8.62
2023-03-02T10:39:01.735Z,8.63
2023-03-02T10:42:08.446Z,8.79
2023-03-02T10:45:31.101Z,8.69
2023-03-02T10:48:40.951Z,8.82
2023-03-02T10:51:44.900Z,8.75
2023-03-02T10:54:48.933Z,8.70
2023-03-02T10:58:02.802Z,8.19
2023-03-02T11:01:18.056Z,7.95
2023-03-02T11:04:22.159Z,8.00
2023-03-02T11:07:27.865Z,8.16
2023-03-02T11:10:34.572Z,8.30
2023-03-02T11:13:40.106Z,8.17
2023-03-02T11:16:45.653Z,8.10
2023-03-02T11:19:49.793Z,8.20
2023-03-02T11:23:02.172Z,8.24
2023-03-02T11:26:14.085Z,7.97
2023-03-02T11:29:35.161Z,8.62
2023-03-02T11:32:47.487Z,8.65
2023-03-02T11:35:56.726Z,8.51
2023-03-02T11:39:00.982Z,8.58
2023-03-02T11:42:04.821Z,8.56
2023-03-02T11:45:19.382Z,8.62
2023-03-02T11:48:29.280Z,8.57
2023-03-02T11:51:37.937Z,8.53
2023-03-02T11:54:46.298Z,8.42
2023-03-02T11:57:53.877Z,8.50
2023-03-02T12:00:58.706Z,8.43
2023-03-02T12:04:11.209Z,8.53
2023-03-02T12:07:22.957Z,8.46
2023-03-02T12:10:32.043Z,8.57
2023-03-02T12:13:37.535Z,8.61
2023-03-02T12:16:43.497Z,8.60
2023-03-02T12:19:50.530Z,8.36
2023-03-02T12:22:54.510Z,8.87
2023-03-02T12:26:08.380Z,8.88
2023-03-02T12:29:25.782Z,8.56
2023-03-02T12:32:32.216Z,8.41
2023-03-02T12:35:37.504Z,8.28
2023-03-02T12:38:45.711Z,8.47
2023-03-02T12:42:10.018Z,8.59
2023-03-02T12:45:25.953Z,8.36
2023-03-02T12:48:34.270Z,8.33
2023-03-02T12:51:50.225Z,8.09
2023-03-02T12:55:08.285Z,8.23
2023-03-02T12:58:19.142Z,8.27
2023-03-02T13:01:25.199Z,8.36
2023-03-02T13:04:29.289Z,8.26
2023-03-02T13:07:41.599Z,8.26
2023-03-02T13:10:51.144Z,8.65
2023-03-02T13:13:55.030Z,8.82
2023-03-02T13:17:03.078Z,8.79
2023-03-02T13:20:07.964Z,8.50
2023-03-02T13:23:15.444Z,8.67
2023-03-02T13:26:27.790Z,8.57
2023-03-02T13:29:32.227Z,8.51
2023-03-02T13:32:40.232Z,8.52
2023-03-02T13:35:48.516Z,8.40
2023-03-02T13:38:56.555Z,8.54
2023-03-02T13:42:02.942Z,8.48
2023-03-02T13:45:25.778Z,8.77
2023-03-02T13:48:30.978Z,8.52
2023-03-02T13:51:37.990Z,8.74
2023-03-02T13:54:45.857Z,8.65
2023-03-02T13:57:51.316Z,8.54
2023-03-02T14:00:55.842Z,8.61
2023-03-02T14:04:01.714Z,8.43
2023-03-02T14:07:05.352Z,8.34
2023-03-02T14:10:12.246Z,8.29
2023-03-02T14:13:18.487Z,8.49
2023-03-02T14:16:24.434Z,8.32
2023-03-02T14:19:28.176Z,8.36
2023-03-02T14:22:32.242Z,8.35
2023-03-02T14:25:37.458Z,8.45
2023-03-02T14:28:41.268Z,8.24
2023-03-02T14:31:44.979Z,8.27
2023-03-02T14:34:48.744Z,8.38
2023-03-02T14:37:52.652Z,8.51
2023-03-02T14:40:58.544Z,8.21
2023-03-02T14:44:02.274Z,8.28
2023-03-02T14:47:06.178Z,8.11
2023-03-02T14:50:12.112Z,8.24
2023-03-02T14:53:20.419Z,8.20
2023-03-02T14:56:25.903Z,8.02
2023-03-02T14:59:29.689Z,8.15
2023-03-02T15:02:33.720Z,8.02
2023-03-02T15:05:37.614Z,7.98
2023-03-02T15:08:41.581Z,7.95
2023-03-02T15:11:47.044Z,7.76
2023-03-02T15:14:50.958Z,7.73
2023-03-02T15:17:54.706Z,7.78
2023-03-02T15:20:58.457Z,7.96
2023-03-02T15:24:02.512Z,8.17
2023-03-02T15:27:07.869Z,8.10
2023-03-02T15:30:13.255Z,8.06
2023-03-02T15:33:17.163Z,8.24
2023-03-02T15:36:21.031Z,8.07
2023-03-02T15:39:24.902Z,7.92
2023-03-02T15:42:30.220Z,8.00
2023-03-02T15:45:34.050Z,8.04
2023-03-02T15:48:38.836Z,8.22
2023-03-02T15:51:42.720Z,8.34
2023-03-02T15:54:46.409Z,8.18
2023-03-02T15:57:51.572Z,8.28
2023-03-02T16:00:57.102Z,8.03
2023-03-02T16:04:01.364Z,8.32
2023-03-02T16:07:05.394Z,8.34
2023-03-02T16:10:15.355Z,8.34
2023-03-02T16:13:20.561Z,8.31
2023-03-02T16:16:24.390Z,8.25
2023-03-02T16:19:28.145Z,8.10
2023-03-02T16:22:31.924Z,8.12
2023-03-02T16:25:36.590Z,8.21
2023-03-02T16:28:42.142Z,8.26
2023-03-02T16:31:47.734Z,8.37
2023-03-02T16:34:51.472Z,8.39
2023-03-02T16:37:55.441Z,8.16
2023-03-02T16:40:59.266Z,8.36
2023-03-02T16:44:04.872Z,8.13
2023-03-02T16:47:08.616Z,8.27
2023-03-02T16:50:13.808Z,8.18
2023-03-02T16:53:19.605Z,8.21
2023-03-02T16:56:23.357Z,8.00
2023-03-02T16:59:28.571Z,8.13
2023-03-02T17:02:32.560Z,8.06
2023-03-02T17:05:36.334Z,8.16
2023-03-02T17:08:40.438Z,8.30
2023-03-02T17:11:44.247Z,8.37
2023-03-02T17:14:49.450Z,8.05
2023-03-02T17:17:53.145Z,8.02
2023-03-02T17:20:58.651Z,8.31
2023-03-02T17:24:02.447Z,8.10
2023-03-02T17:27:13.206Z,8.20
2023-03-02T17:30:24.523Z,8.20
2023-03-02T17:33:29.857Z,8.28
2023-03-02T17:36:36.512Z,8.38
2023-03-02T17:39:40.654Z,8.27
2023-03-02T17:42:44.608Z,8.38
2023-03-02T17:45:49.843Z,8.41
2023-03-02T17:48:55.630Z,8.45
2023-03-02T17:51:59.398Z,8.04
2023-03-02T17:55:03.243Z,8.06
2023-03-02T17:58:07.030Z,8.00
2023-03-02T18:01:12.399Z,8.09
2023-03-02T18:04:16.197Z,7.97
2023-03-02T18:07:20.037Z,7.94
2023-03-02T18:10:23.761Z,7.74
2023-03-02T18:13:27.600Z,7.88
2023-03-02T18:16:35.702Z,8.01
2023-03-02T18:19:39.702Z,8.09
2023-03-02T18:22:43.533Z,7.70
2023-03-02T18:25:47.170Z,7.92
2023-03-02T18:28:50.893Z,8.16
2023-03-02T18:31:56.184Z,8.23
2023-03-02T18:35:00.098Z,8.42
2023-03-02T18:38:04.062Z,8.35
2023-03-02T18:41:08.989Z,8.48
2023-03-02T18:44:12.864Z,7.65
2023-03-02T18:47:19.566Z,7.86
2023-03-02T18:50:23.941Z,8.03
2023-03-02T18:53:27.959Z,7.87
2023-03-02T18:56:31.789Z,7.86
2023-03-02T18:59:36.089Z,7.93
2023-03-02T19:02:41.350Z,7.86
2023-03-02T19:05:46.077Z,7.78
2023-03-02T19:08:49.841Z,7.77
2023-03-02T19:11:53.633Z,8.08
2023-03-02T19:14:57.607Z,8.21
2023-03-02T19:18:02.923Z,8.09
2023-03-02T19:21:07.431Z,7.83
2023-03-02T19:24:11.312Z,7.59
2023-03-02T19:27:15.628Z,7.68
2023-03-02T19:30:22.951Z,7.75
2023-03-02T19:33:29.304Z,7.66
2023-03-02T19:36:33.177Z,7.94
2023-03-02T19:39:36.947Z,7.81
2023-03-02T19:42:41.011Z,7.95
2023-03-02T19:45:44.850Z,7.88
2023-03-02T19:48:50.070Z,7.45
2023-03-02T19:51:53.991Z,7.58
2023-03-02T19:54:57.724Z,7.61
2023-03-02T19:58:02.630Z,7.71
2023-03-02T20:01:06.941Z,7.90
2023-03-02T20:04:12.717Z,7.80
2023-03-02T20:07:16.755Z,7.80
2023-03-02T20:10:30.443Z,7.88
2023-03-02T20:13:34.291Z,7.97
2023-03-02T20:16:39.081Z,7.69
2023-03-02T20:19:44.806Z,7.77
2023-03-02T20:22:49.785Z,7.67
2023-03-02T20:25:54.036Z,7.79
2023-03-02T20:29:00.480Z,7.74
2023-03-02T20:32:09.177Z,7.85
2023-03-02T20:35:15.037Z,7.90
2023-03-02T20:38:25.901Z,7.74
2023-03-02T20:41:31.218Z,7.83
2023-03-02T20:44:35.255Z,7.70
2023-03-02T20:47:39.358Z,7.42
2023-03-02T20:50:45.969Z,7.60
2023-03-02T20:53:49.781Z,7.69
2023-03-02T20:56:54.197Z,7.69
2023-03-02T20:59:57.849Z,7.66
2023-03-02T21:03:01.576Z,7.86
2023-03-02T21:06:08.062Z,7.93
2023-03-02T21:09:12.358Z,7.78
2023-03-02T21:12:16.143Z,7.73
2023-03-02T21:15:23.025Z,7.70
2023-03-02T21:18:27.202Z,7.70
2023-03-02T21:21:41.460Z,7.75
2023-03-02T21:24:45.614Z,7.53
2023-03-02T21:27:49.966Z,7.72
2023-03-02T21:30:53.959Z,7.99
2023-03-02T21:33:58.560Z,7.83
2023-03-02T21:37:04.754Z,7.98
2023-03-02T21:40:10.179Z,8.05
2023-03-02T21:43:16.338Z,8.10
2023-03-02T21:46:22.528Z,7.89
2023-03-02T21:49:26.439Z,7.99
2023-03-02T21:52:31.677Z,7.98
2023-03-02T21:55:35.910Z,8.02
2023-03-02T21:58:39.880Z,7.88
2023-03-02T22:01:44.258Z,8.14
2023-03-02T22:04:48.031Z,7.98
2023-03-02T22:07:53.217Z,8.01
2023-03-02T22:10:57.029Z,7.65
2023-03-02T22:14:03.145Z,7.77
2023-03-02T22:17:16.874Z,7.79
2023-03-02T22:20:21.378Z,7.94
2023-03-02T22:23:28.000Z,8.01
2023-03-02T22:26:35.098Z,8.10
2023-03-02T22:29:43.150Z,7.90
2023-03-02T22:32:46.979Z,7.80
2023-03-02T22:35:53.156Z,7.73
2023-03-02T22:39:02.063Z,7.81
2023-03-02T22:42:13.953Z,7.91
2023-03-02T22:45:22.730Z,7.90
2023-03-02T22:48:28.869Z,8.06
2023-03-02T22:51:35.418Z,8.12
2023-03-02T22:54:40.571Z,8.00
2023-03-02T22:57:44.798Z,8.05
2023-03-02T23:00:49.773Z,8.10
2023-03-02T23:03:56.075Z,8.27
2023-03-02T23:07:01.505Z,8.17
2023-03-02T23:10:07.376Z,8.26
2023-03-02T23:13:12.259Z,8.29
2023-03-02T23:16:21.280Z,8.10
2023-03-02T23:19:26.354Z,8.11
2023-03-02T23:22:30.180Z,8.30
2023-03-02T23:25:35.405Z,7.93
2023-03-02T23:28:39.318Z,7.96
2023-03-02T23:31:43.948Z,8.06
2023-03-02T23:34:47.766Z,8.29
2023-03-02T23:37:51.490Z,8.41
2023-03-02T23:40:56.684Z,8.32
2023-03-02T23:44:00.432Z,7.90
2023-03-02T23:47:03.958Z,7.60
2023-03-02T23:50:09.049Z,8.01
2023-03-02T23:53:12.921Z,8.04
2023-03-02T23:56:18.138Z,7.80
2023-03-02T23:59:22.120Z,8.02
